createdAt,value
2017-10-06T08:29:14.810Z,91.97
2017-10-06T08:30:15.443Z,92.07
2017-10-06T08:31:16.075Z,92.55
2017-10-06T08:32:16.705Z,92.74
2017-10-06T08:33:17.338Z,92.74
2017-10-06T08:34:17.969Z,92.74
2017-10-06T08:35:18.602Z,93.07
2017-10-06T08:36:19.233Z,91.83
2017-10-06T08:37:19.864Z,92.12
2017-10-06T08:38:20.511Z,92.12
2017-10-06T08:39:21.140Z,92.21
2017-10-06T08:40:21.771Z,92.79
2017-10-06T08:41:22.402Z,92.31
2017-10-06T08:42:23.036Z,92.83
2017-10-06T08:43:23.672Z,92.74
2017-10-06T08:44:24.302Z,92.83
2017-10-06T08:45:24.934Z,92.74
2017-10-06T08:46:25.575Z,92.50
2017-10-06T08:47:26.203Z,93.22
2017-10-06T08:48:26.841Z,92.83
2017-10-06T08:49:27.780Z,92.93
2017-10-06T08:50:28.421Z,92.65
2017-10-06T08:51:29.052Z,92.55
2017-10-06T08:52:29.686Z,92.93
2017-10-06T08:53:30.316Z,92.65
2017-10-06T08:54:31.196Z,92.83
2017-10-06T08:55:31.835Z,92.74
2017-10-06T08:56:32.468Z,93.22
2017-10-06T08:57:33.096Z,93.41
2017-10-06T08:58:33.727Z,93.02
2017-10-06T08:59:34.357Z,92.55
2017-10-06T09:00:34.986Z,92.97
2017-10-06T09:01:35.620Z,92.88
2017-10-06T09:02:36.252Z,92.97
2017-10-06T09:03:36.885Z,92.60
2017-10-06T09:04:37.516Z,92.97
2017-10-06T09:05:38.158Z,92.50
2017-10-06T09:06:38.788Z,92.50
2017-10-06T09:07:39.419Z,92.60
2017-10-06T09:08:40.054Z,92.50
2017-10-06T09:09:40.684Z,91.45
2017-10-06T09:10:41.318Z,91.64
2017-10-06T09:11:41.952Z,91.74
2017-10-06T09:12:42.590Z,91.74
2017-10-06T09:13:43.220Z,92.50
2017-10-06T09:14:43.855Z,92.41
2017-10-06T09:15:44.485Z,91.16
2017-10-06T09:16:45.120Z,91.74
2017-10-06T09:17:45.748Z,92.60
2017-10-06T09:18:46.380Z,92.69
2017-10-06T09:19:47.013Z,92.79
2017-10-06T09:20:47.639Z,92.21
2017-10-06T09:21:48.275Z,92.41
2017-10-06T09:22:48.917Z,91.55
2017-10-06T09:23:49.544Z,91.97
2017-10-06T09:24:50.184Z,91.40
2017-10-06T09:25:50.815Z,91.50
2017-10-06T09:26:51.579Z,91.54
2017-10-06T09:27:52.218Z,91.45
2017-10-06T09:28:52.851Z,91.11
2017-10-06T09:29:53.743Z,90.97
2017-10-06T09:30:54.388Z,91.45
2017-10-06T09:31:55.025Z,91.06
2017-10-06T09:32:55.657Z,91.59
2017-10-06T09:33:56.287Z,91.97
2017-10-06T09:34:57.157Z,91.40
2017-10-06T09:35:57.863Z,92.26
2017-10-06T09:36:58.496Z,92.07
2017-10-06T09:37:59.127Z,92.83
2017-10-06T09:38:59.759Z,92.74
2017-10-06T09:40:00.395Z,93.21
2017-10-06T09:41:01.039Z,92.93
2017-10-06T09:42:01.676Z,92.83
2017-10-06T09:43:02.309Z,93.02
2017-10-06T09:44:02.941Z,92.74
2017-10-06T09:45:03.575Z,92.79
2017-10-06T09:46:04.220Z,92.26
2017-10-06T09:47:04.861Z,92.45
2017-10-06T09:48:05.496Z,92.74
2017-10-06T09:49:06.127Z,92.26
2017-10-06T09:50:06.759Z,91.69
2017-10-06T09:51:07.392Z,92.07
2017-10-06T09:52:08.023Z,91.59
2017-10-06T09:53:08.656Z,90.16
2017-10-06T09:54:09.293Z,91.30
2017-10-06T09:55:09.930Z,91.02
2017-10-06T09:56:10.561Z,91.40
2017-10-06T09:57:11.194Z,89.68
2017-10-06T09:58:11.820Z,90.16
2017-10-06T09:59:12.459Z,90.64
2017-10-06T10:00:13.089Z,90.54
2017-10-06T10:01:13.724Z,90.16
2017-10-06T10:02:14.358Z,90.06
2017-10-06T10:03:14.996Z,90.16
2017-10-06T10:04:15.624Z,91.30
2017-10-06T10:05:16.508Z,91.40
2017-10-06T10:06:17.139Z,90.92
2017-10-06T10:07:17.767Z,90.64
2017-10-06T10:08:18.398Z,90.06
2017-10-06T10:09:19.028Z,89.11
2017-10-06T10:10:19.658Z,89.01
2017-10-06T10:11:20.291Z,90.21
2017-10-06T10:12:20.924Z,91.26
2017-10-06T10:13:21.657Z,91.83
2017-10-06T10:14:22.286Z,91.55
2017-10-06T10:15:22.921Z,91.45
2017-10-06T10:16:23.554Z,90.69
2017-10-06T10:17:24.185Z,91.07
2017-10-06T10:18:24.824Z,91.26
2017-10-06T10:19:25.456Z,90.97
2017-10-06T10:20:26.384Z,90.06
2017-10-06T10:21:27.017Z,89.87
2017-10-06T10:22:27.667Z,89.68
2017-10-06T10:23:28.307Z,88.68
2017-10-06T10:24:28.935Z,87.53
2017-10-06T10:25:29.565Z,86.29
2017-10-06T10:26:30.193Z,85.81
2017-10-06T10:27:30.839Z,85.71
2017-10-06T10:28:31.470Z,85.52
2017-10-06T10:29:32.101Z,85.52
2017-10-06T10:30:32.734Z,85.62
2017-10-06T10:31:33.373Z,85.28
2017-10-06T10:32:34.010Z,84.03
2017-10-06T10:33:34.640Z,83.46
2017-10-06T10:34:35.272Z,83.08
2017-10-06T10:35:35.916Z,82.51
2017-10-06T10:36:36.544Z,82.60
2017-10-06T10:37:37.179Z,82.22
2017-10-06T10:38:37.811Z,81.74
2017-10-06T10:39:38.447Z,81.30
2017-10-06T10:40:39.081Z,80.98
2017-10-06T10:41:39.731Z,81.21
2017-10-06T10:42:40.359Z,82.07
2017-10-06T10:43:40.993Z,82.35
2017-10-06T10:44:41.623Z,81.74
2017-10-06T10:45:42.254Z,82.41
2017-10-06T10:46:42.889Z,82.07
2017-10-06T10:47:43.531Z,81.21
2017-10-06T10:48:44.171Z,80.54
2017-10-06T10:49:44.807Z,81.34
2017-10-06T10:50:45.687Z,80.19
2017-10-06T10:51:46.316Z,79.64
2017-10-06T10:52:46.957Z,80.44
2017-10-06T10:53:47.588Z,80.30
2017-10-06T10:54:48.230Z,80.59
2017-10-06T10:55:48.860Z,80.11
2017-10-06T10:56:49.495Z,80.21
2017-10-06T10:57:50.131Z,81.07
2017-10-06T10:58:50.767Z,80.63
2017-10-06T10:59:51.398Z,80.44
2017-10-06T11:00:52.286Z,80.63
2017-10-06T11:01:52.918Z,80.67
2017-10-06T11:02:53.550Z,79.68
2017-10-06T11:03:54.194Z,80.25
2017-10-06T11:04:54.825Z,79.39
2017-10-06T11:05:55.460Z,79.39
2017-10-06T11:06:56.094Z,78.95
2017-10-06T11:07:56.725Z,78.76
2017-10-06T11:08:57.362Z,78.22
2017-10-06T11:09:57.993Z,78.22
2017-10-06T11:10:58.879Z,78.32
2017-10-06T11:11:59.511Z,78.38
2017-10-06T11:13:00.202Z,78.38
2017-10-06T11:14:00.837Z,78.09
2017-10-06T11:15:01.477Z,78.76
2017-10-06T11:16:02.164Z,78.86
2017-10-06T11:17:02.797Z,78.19
2017-10-06T11:18:03.428Z,78.43
2017-10-06T11:19:04.065Z,77.57
2017-10-06T11:20:04.700Z,78.34
2017-10-06T11:21:05.331Z,78.53
2017-10-06T11:22:05.962Z,78.05
2017-10-06T11:23:06.591Z,78.53
2017-10-06T11:24:07.228Z,78.63
2017-10-06T11:25:07.860Z,77.95
2017-10-06T11:26:08.501Z,78.81
2017-10-06T11:27:09.138Z,78.72
2017-10-06T11:28:09.771Z,78.05
2017-10-06T11:29:10.404Z,78.34
2017-10-06T11:30:11.034Z,78.49
2017-10-06T11:31:11.675Z,78.30
2017-10-06T11:32:12.300Z,77.86
2017-10-06T11:33:12.929Z,77.38
2017-10-06T11:34:13.563Z,78.19
2017-10-06T11:35:14.195Z,78.24
2017-10-06T11:36:14.837Z,78.14
2017-10-06T11:37:15.477Z,77.00
2017-10-06T11:38:16.127Z,78.11
2017-10-06T11:39:16.765Z,77.86
2017-10-06T11:40:17.397Z,77.67
2017-10-06T11:41:18.031Z,77.67
2017-10-06T11:42:18.662Z,78.14
2017-10-06T11:43:19.296Z,77.51
2017-10-06T11:44:19.934Z,77.04
2017-10-06T11:45:20.567Z,76.56
2017-10-06T11:46:21.200Z,75.16
2017-10-06T11:47:21.841Z,74.01
2017-10-06T11:48:22.475Z,73.05
2017-10-06T11:49:23.105Z,73.24
2017-10-06T11:50:23.735Z,72.96
2017-10-06T11:51:24.370Z,73.34
2017-10-06T11:52:25.025Z,73.59
2017-10-06T11:53:25.703Z,74.61
2017-10-06T11:54:26.339Z,74.55
2017-10-06T11:55:26.969Z,74.90
2017-10-06T11:56:27.906Z,75.27
2017-10-06T11:57:28.557Z,75.27
2017-10-06T11:58:29.172Z,75.27
2017-10-06T11:59:29.805Z,75.95
2017-10-06T12:00:30.466Z,75.51
2017-10-06T12:01:31.450Z,74.93
2017-10-06T12:02:32.087Z,75.31
2017-10-06T12:03:32.718Z,75.47
2017-10-06T12:04:33.354Z,76.04
2017-10-06T12:05:33.986Z,75.95
2017-10-06T12:06:34.620Z,75.76
2017-10-06T12:07:35.256Z,76.52
2017-10-06T12:08:35.898Z,77.67
2017-10-06T12:09:36.529Z,77.67
2017-10-06T12:10:37.162Z,77.76
2017-10-06T12:11:37.801Z,77.92
2017-10-06T12:12:38.434Z,78.11
2017-10-06T12:13:39.083Z,78.39
2017-10-06T12:14:39.727Z,78.97
2017-10-06T12:15:40.367Z,80.11
2017-10-06T12:16:41.006Z,80.69
2017-10-06T12:17:41.636Z,81.65
2017-10-06T12:18:42.288Z,80.98
2017-10-06T12:19:42.897Z,80.46
2017-10-06T12:20:43.543Z,81.41
2017-10-06T12:21:44.174Z,81.70
2017-10-06T12:22:44.805Z,83.13
2017-10-06T12:23:45.459Z,83.80
2017-10-06T12:24:46.089Z,85.14
2017-10-06T12:25:46.746Z,85.52
2017-10-06T12:26:47.661Z,86.38
2017-10-06T12:27:48.305Z,87.24
2017-10-06T12:28:48.949Z,87.15
2017-10-06T12:29:49.577Z,87.91
2017-10-06T12:30:50.225Z,86.43
2017-10-06T12:31:51.091Z,87.39
2017-10-06T12:32:51.732Z,88.25
2017-10-06T12:33:52.368Z,89.63
2017-10-06T12:34:53.001Z,90.73
2017-10-06T12:35:53.633Z,91.40
2017-10-06T12:36:54.529Z,91.59
2017-10-06T12:37:55.175Z,94.84
2017-10-06T12:38:55.807Z,95.03
2017-10-06T12:39:56.441Z,94.98
2017-10-06T12:40:57.077Z,96.22
2017-10-06T12:41:57.710Z,96.42
2017-10-06T12:42:58.352Z,95.41
2017-10-06T12:43:58.992Z,95.03
2017-10-06T12:44:59.629Z,95.51
2017-10-06T12:46:00.259Z,94.98
2017-10-06T12:47:00.896Z,95.75
2017-10-06T12:48:01.531Z,95.22
2017-10-06T12:49:02.161Z,94.65
2017-10-06T12:50:02.796Z,93.60
2017-10-06T12:51:03.427Z,93.88
2017-10-06T12:52:04.057Z,93.88
2017-10-06T12:53:04.689Z,93.03
2017-10-06T12:54:05.316Z,93.32
2017-10-06T12:55:05.944Z,91.69
2017-10-06T12:56:06.587Z,93.51
2017-10-06T12:57:07.218Z,93.03
2017-10-06T12:58:07.856Z,92.55
2017-10-06T12:59:08.503Z,92.27
2017-10-06T13:00:09.134Z,92.84
2017-10-06T13:01:09.764Z,92.27
2017-10-06T13:02:10.648Z,92.60
2017-10-06T13:03:11.289Z,92.12
2017-10-06T13:04:11.927Z,92.88
2017-10-06T13:05:12.559Z,92.88
2017-10-06T13:06:13.194Z,92.32
2017-10-06T13:07:13.826Z,93.22
2017-10-06T13:08:14.460Z,92.50
2017-10-06T13:09:15.094Z,92.46
2017-10-06T13:10:15.725Z,93.02
2017-10-06T13:11:16.357Z,93.22
2017-10-06T13:12:17.236Z,92.93
2017-10-06T13:13:17.881Z,93.12
2017-10-06T13:14:18.514Z,93.02
2017-10-06T13:15:19.147Z,93.41
2017-10-06T13:16:19.777Z,93.16
2017-10-06T13:17:20.335Z,93.07
2017-10-06T13:18:21.044Z,91.63
2017-10-06T13:19:21.684Z,89.23
2017-10-06T13:20:22.316Z,87.45
2017-10-06T13:21:22.949Z,85.91
2017-10-06T13:22:23.584Z,84.89
2017-10-06T13:23:24.223Z,80.90
2017-10-06T13:24:24.861Z,77.29
2017-10-06T13:25:25.495Z,76.23
2017-10-06T13:26:26.129Z,75.96
2017-10-06T13:27:26.758Z,77.19
2017-10-06T13:28:27.400Z,74.73
2017-10-06T13:29:28.043Z,70.06
2017-10-06T13:30:28.685Z,68.32
2017-10-06T13:31:29.317Z,66.27
2017-10-06T13:32:29.955Z,62.92
2017-10-06T13:33:30.590Z,60.14
2017-10-06T13:34:31.226Z,55.82
2017-10-06T13:35:31.941Z,57.68
2017-10-06T13:36:32.576Z,56.70
2017-10-06T13:37:33.215Z,54.03
2017-10-06T13:38:33.856Z,54.37
2017-10-06T13:39:34.494Z,54.17
2017-10-06T13:40:35.130Z,59.75
2017-10-06T13:41:35.771Z,66.01
2017-10-06T13:42:36.414Z,67.42
2017-10-06T13:43:37.048Z,67.55
2017-10-06T13:44:37.689Z,68.29
2017-10-06T13:45:38.325Z,67.71
2017-10-06T13:46:38.962Z,65.11
2017-10-06T13:47:39.599Z,63.43
2017-10-06T13:48:40.236Z,60.28
2017-10-06T13:49:40.872Z,58.51
2017-10-06T13:50:41.518Z,58.51
2017-10-06T13:51:42.151Z,59.27
2017-10-06T13:52:42.795Z,63.25
2017-10-06T13:53:43.429Z,65.30
2017-10-06T13:54:44.065Z,63.67
2017-10-06T13:55:44.707Z,64.89
2017-10-06T13:56:45.342Z,65.37
2017-10-06T13:57:45.977Z,66.58
2017-10-06T13:58:46.628Z,67.99
2017-10-06T13:59:47.265Z,67.45
2017-10-06T14:00:47.908Z,65.91
2017-10-06T14:01:48.559Z,66.81
2017-10-06T14:02:49.196Z,68.35
2017-10-06T14:03:49.833Z,69.56
2017-10-06T14:04:50.498Z,69.21
2017-10-06T14:05:51.133Z,67.58
2017-10-06T14:06:51.775Z,66.88
2017-10-06T14:07:52.418Z,65.85
2017-10-06T14:08:53.057Z,64.15
2017-10-06T14:09:53.710Z,65.88
2017-10-06T14:10:54.353Z,65.78
2017-10-06T14:11:54.977Z,66.30
2017-10-06T14:12:55.884Z,65.78
2017-10-06T14:13:56.521Z,65.91
2017-10-06T14:14:57.156Z,64.59
2017-10-06T14:15:57.795Z,64.82
2017-10-06T14:16:58.428Z,65.37
2017-10-06T14:17:59.070Z,68.83
2017-10-06T14:18:59.708Z,68.41
2017-10-06T14:20:00.343Z,67.54
2017-10-06T14:21:00.985Z,67.93
2017-10-06T14:22:01.626Z,67.99
2017-10-06T14:23:02.560Z,69.43
2017-10-06T14:24:03.195Z,69.24
2017-10-06T14:25:03.838Z,69.49
2017-10-06T14:26:04.474Z,69.34
2017-10-06T14:27:05.111Z,67.35
2017-10-06T14:28:05.746Z,67.99
2017-10-06T14:29:06.390Z,68.70
2017-10-06T14:30:07.027Z,68.70
2017-10-06T14:31:07.668Z,69.20
2017-10-06T14:32:08.307Z,70.03
2017-10-06T14:33:08.969Z,70.39
2017-10-06T14:34:09.587Z,69.97
2017-10-06T14:35:10.228Z,71.76
2017-10-06T14:36:10.862Z,72.78
2017-10-06T14:37:11.499Z,73.83
2017-10-06T14:38:12.156Z,74.02
2017-10-06T14:39:12.798Z,74.22
2017-10-06T14:40:13.436Z,75.37
2017-10-06T14:41:14.083Z,75.27
2017-10-06T14:42:14.718Z,74.44
2017-10-06T14:43:16.020Z,74.16
2017-10-06T14:44:16.658Z,75.18
2017-10-06T14:45:17.299Z,75.14
2017-10-06T14:46:17.930Z,78.17
2017-10-06T14:47:18.564Z,80.14
2017-10-06T14:48:19.206Z,81.20
2017-10-06T14:49:19.839Z,82.15
2017-10-06T14:50:20.473Z,83.06
2017-10-06T14:51:21.103Z,84.13
2017-10-06T14:52:21.736Z,85.09
2017-10-06T14:53:22.685Z,86.04
2017-10-06T14:54:23.318Z,87.19
2017-10-06T14:55:23.951Z,87.48
2017-10-06T14:56:24.583Z,88.43
2017-10-06T14:57:25.215Z,89.29
2017-10-06T14:58:25.850Z,88.09
2017-10-06T14:59:26.484Z,87.90
2017-10-06T15:00:27.128Z,87.43
2017-10-06T15:01:27.769Z,87.38
2017-10-06T15:02:28.403Z,88.34
2017-10-06T15:03:29.037Z,89.48
2017-10-06T15:04:29.671Z,89.10
